createdAt,value
2023-01-19T00:01:30.900Z,4.60
2023-01-19T00:03:59.123Z,5.85
2023-01-19T00:06:28.691Z,4.10
2023-01-19T00:08:55.972Z,5.80
2023-01-19T00:11:25.327Z,6.18
2023-01-19T00:13:55.633Z,6.13
2023-01-19T00:16:25.313Z,5.95
2023-01-19T00:18:55.945Z,5.15
2023-01-19T00:21:22.961Z,5.45
2023-01-19T00:23:55.310Z,7.80
2023-01-19T00:26:24.412Z,6.78
2023-01-19T00:28:54.228Z,4.82
2023-01-19T00:31:24.403Z,6.25
2023-01-19T00:33:55.767Z,6.05
2023-01-19T00:36:24.711Z,6.60
2023-01-19T00:38:52.053Z,8.43
2023-01-19T00:41:41.004Z,7.10
2023-01-19T00:44:12.011Z,8.70
2023-01-19T00:46:41.925Z,4.97
2023-01-19T00:49:10.615Z,4.50
2023-01-19T00:51:37.527Z,4.18
2023-01-19T00:54:10.284Z,9.82
2023-01-19T00:56:38.187Z,5.80
2023-01-19T00:59:05.354Z,10.00
2023-01-19T01:01:45.240Z,6.38
2023-01-19T01:04:15.076Z,6.38
2023-01-19T01:06:42.014Z,8.27
2023-01-19T01:09:11.967Z,3.95
2023-01-19T01:11:39.921Z,7.43
2023-01-19T01:14:07.792Z,5.90
2023-01-19T01:16:34.670Z,6.55
2023-01-19T01:19:02.111Z,7.35
2023-01-19T01:21:30.500Z,10.88
2023-01-19T01:23:57.676Z,16.20
2023-01-19T01:26:26.988Z,8.27
2023-01-19T01:28:54.355Z,10.55
2023-01-19T01:31:21.372Z,10.40
2023-01-19T01:33:48.774Z,17.77
2023-01-19T01:36:15.772Z,16.80
2023-01-19T01:38:44.960Z,8.00
2023-01-19T01:41:11.993Z,13.43
2023-01-19T01:43:44.972Z,23.42
2023-01-19T01:46:15.377Z,15.57
2023-01-19T01:48:47.350Z,19.05
2023-01-19T01:51:26.240Z,10.98
2023-01-19T01:54:12.920Z,12.63
2023-01-19T01:56:43.445Z,15.50
2023-01-19T01:59:25.913Z,26.33
2023-01-19T02:02:12.966Z,12.43
2023-01-19T02:04:45.990Z,13.80
2023-01-19T02:07:34.899Z,12.70
2023-01-19T02:10:24.027Z,17.40
2023-01-19T02:13:18.940Z,11.85
2023-01-19T02:15:49.953Z,18.95
2023-01-19T02:18:17.272Z,24.80
2023-01-19T02:20:52.294Z,15.50
2023-01-19T02:23:30.102Z,20.58
2023-01-19T02:25:58.709Z,21.00
2023-01-19T02:28:27.135Z,9.77
2023-01-19T02:30:54.711Z,19.80
2023-01-19T02:33:21.950Z,14.60
2023-01-19T02:35:51.838Z,17.10
2023-01-19T02:38:20.478Z,21.48
2023-01-19T02:40:51.674Z,18.33
2023-01-19T02:43:20.198Z,18.85
2023-01-19T02:45:48.225Z,18.52
2023-01-19T02:48:17.989Z,29.33
2023-01-19T02:50:49.222Z,20.55
2023-01-19T02:53:51.431Z,17.23
2023-01-19T02:56:48.337Z,17.40
2023-01-19T02:59:30.553Z,19.65
2023-01-19T03:02:16.579Z,17.50
2023-01-19T03:05:00.140Z,16.08
2023-01-19T03:07:40.341Z,13.68
2023-01-19T03:10:15.657Z,16.90
2023-01-19T03:12:48.349Z,7.55
2023-01-19T03:15:22.330Z,16.45
2023-01-19T03:17:52.218Z,13.80
2023-01-19T03:20:24.688Z,9.20
2023-01-19T03:22:55.850Z,14.70
2023-01-19T03:25:24.810Z,10.25
2023-01-19T03:27:54.768Z,17.67
2023-01-19T03:30:30.675Z,12.75
2023-01-19T03:33:05.162Z,27.75
2023-01-19T03:35:35.732Z,14.85
2023-01-19T03:38:08.673Z,15.85
2023-01-19T03:40:48.683Z,19.02
2023-01-19T03:43:17.561Z,10.75
2023-01-19T03:45:49.046Z,19.08
2023-01-19T03:48:17.288Z,17.55
2023-01-19T03:50:44.404Z,19.10
2023-01-19T03:53:13.473Z,18.33
2023-01-19T03:55:42.583Z,12.57
2023-01-19T03:58:10.182Z,12.20
2023-01-19T04:00:37.957Z,13.35
2023-01-19T04:03:12.788Z,26.10
2023-01-19T04:05:39.799Z,11.00
2023-01-19T04:08:07.492Z,10.93
2023-01-19T04:10:34.590Z,17.20
2023-01-19T04:13:02.864Z,16.10
2023-01-19T04:15:30.964Z,14.00
2023-01-19T04:18:00.365Z,14.90
2023-01-19T04:20:28.897Z,12.23
2023-01-19T04:23:00.979Z,11.27
2023-01-19T04:25:29.716Z,13.70
2023-01-19T04:28:00.172Z,10.07
2023-01-19T04:30:27.711Z,17.33
2023-01-19T04:33:01.474Z,8.70
2023-01-19T04:35:30.066Z,9.00
2023-01-19T04:37:57.289Z,11.05
2023-01-19T04:40:24.530Z,12.40
2023-01-19T04:42:51.672Z,10.68
2023-01-19T04:45:18.787Z,8.25
2023-01-19T04:47:46.170Z,4.85
2023-01-19T04:50:13.104Z,3.95
2023-01-19T04:52:41.806Z,9.18
2023-01-19T04:55:09.814Z,4.75
2023-01-19T04:57:37.062Z,8.95
2023-01-19T05:00:07.489Z,7.40
2023-01-19T05:02:40.144Z,3.55
2023-01-19T05:05:12.445Z,5.75
2023-01-19T05:07:43.605Z,7.82
2023-01-19T05:10:11.984Z,2.72
2023-01-19T05:12:39.351Z,4.75
2023-01-19T05:15:08.516Z,7.50
2023-01-19T05:17:35.860Z,1.17
2023-01-19T05:20:03.708Z,2.03
2023-01-19T05:22:31.291Z,2.17
2023-01-19T05:24:59.777Z,3.38
2023-01-19T05:27:26.988Z,1.02
2023-01-19T05:29:53.889Z,8.52
2023-01-19T05:32:21.276Z,1.60
2023-01-19T05:34:49.319Z,5.63
2023-01-19T05:37:18.112Z,2.97
2023-01-19T05:39:44.990Z,7.47
2023-01-19T05:42:13.751Z,3.60
2023-01-19T05:44:40.781Z,3.40
2023-01-19T05:47:08.023Z,1.02
2023-01-19T05:49:35.935Z,6.30
2023-01-19T05:52:03.195Z,1.87
2023-01-19T05:54:31.437Z,1.40
2023-01-19T05:56:58.731Z,1.10
2023-01-19T05:59:27.021Z,3.00
2023-01-19T06:01:54.315Z,2.83
2023-01-19T06:04:21.626Z,8.25
2023-01-19T06:06:49.191Z,2.33
2023-01-19T06:09:20.707Z,3.20
2023-01-19T06:11:48.011Z,6.40
2023-01-19T06:14:15.226Z,3.50
2023-01-19T06:16:43.945Z,2.55
2023-01-19T06:19:11.246Z,2.70
2023-01-19T06:21:38.499Z,4.25
2023-01-19T06:24:06.180Z,3.05
2023-01-19T06:26:34.540Z,4.32
2023-01-19T06:29:03.275Z,2.57
2023-01-19T06:31:33.326Z,2.65
2023-01-19T06:34:02.978Z,1.35
2023-01-19T06:38:56.980Z,1.52
2023-01-19T06:41:24.220Z,2.63
2023-01-19T06:43:51.387Z,6.03
2023-01-19T06:46:18.819Z,2.58
2023-01-19T06:48:45.774Z,3.40
2023-01-19T06:51:14.431Z,4.10
2023-01-19T06:53:41.303Z,1.85
2023-01-19T06:56:09.618Z,0.77
2023-01-19T06:58:37.062Z,5.43
2023-01-19T07:01:05.980Z,4.40
2023-01-19T07:03:34.086Z,1.30
2023-01-19T07:06:02.555Z,1.55
2023-01-19T07:08:30.916Z,1.63
2023-01-19T07:11:26.649Z,3.28
2023-01-19T07:16:18.939Z,2.42
2023-01-19T07:18:48.409Z,1.75
2023-01-19T07:21:16.080Z,3.22
2023-01-19T07:23:47.765Z,4.82
2023-01-19T07:26:16.659Z,2.20
2023-01-19T07:28:43.601Z,4.35
2023-01-19T07:31:10.999Z,4.88
2023-01-19T07:33:38.747Z,7.45
2023-01-19T07:36:06.571Z,7.07
2023-01-19T07:38:33.617Z,8.88
2023-01-19T07:41:03.060Z,8.25
2023-01-19T07:43:30.767Z,6.82
2023-01-19T07:45:59.458Z,5.25
2023-01-19T07:48:26.901Z,8.50
2023-01-19T07:50:58.968Z,5.53
2023-01-19T07:53:25.913Z,12.38
2023-01-19T07:55:55.197Z,7.90
2023-01-19T07:58:23.927Z,8.18
2023-01-19T08:03:20.278Z,9.98
2023-01-19T08:05:52.397Z,26.20
2023-01-19T08:08:20.185Z,7.70
2023-01-19T08:10:51.059Z,3.77
2023-01-19T08:13:18.695Z,5.00
2023-01-19T08:15:49.477Z,6.67
2023-01-19T08:18:16.654Z,4.80
2023-01-19T08:20:43.970Z,4.25
2023-01-19T08:23:13.257Z,6.45
2023-01-19T08:25:42.433Z,7.10
2023-01-19T08:28:10.533Z,2.95
2023-01-19T08:30:40.914Z,4.80
2023-01-19T08:33:09.319Z,7.18
2023-01-19T08:35:38.649Z,10.52
2023-01-19T08:40:37.278Z,7.00
2023-01-19T08:43:07.765Z,8.07
2023-01-19T08:45:36.490Z,3.35
2023-01-19T08:48:06.341Z,10.40
2023-01-19T08:50:35.122Z,3.58
2023-01-19T08:53:03.945Z,10.85
2023-01-19T08:55:31.347Z,8.43
2023-01-19T08:58:00.186Z,7.30
2023-01-19T09:00:27.729Z,10.85
2023-01-19T09:02:55.015Z,3.28
2023-01-19T09:05:22.296Z,6.00
2023-01-19T09:07:51.759Z,4.78
2023-01-19T09:10:19.475Z,3.88
2023-01-19T09:12:46.562Z,9.75
2023-01-19T09:15:14.244Z,5.70
2023-01-19T09:17:42.364Z,8.18
2023-01-19T09:20:10.769Z,8.00
2023-01-19T09:22:39.642Z,8.85
2023-01-19T09:27:36.066Z,4.82
2023-01-19T09:30:07.138Z,7.13
2023-01-19T09:32:34.132Z,5.50
2023-01-19T09:35:01.314Z,7.75
2023-01-19T09:37:28.403Z,4.82
2023-01-19T09:39:55.763Z,12.52
2023-01-19T09:42:42.575Z,10.18
2023-01-19T09:45:16.543Z,7.18
2023-01-19T09:47:45.354Z,9.27
2023-01-19T09:50:19.358Z,4.68
2023-01-19T09:52:54.023Z,8.10
2023-01-19T09:55:25.674Z,10.25
2023-01-19T09:57:54.381Z,8.23
2023-01-19T10:03:00.213Z,10.50
2023-01-19T10:05:31.927Z,11.52
2023-01-19T10:08:19.709Z,12.63
2023-01-19T10:10:52.566Z,17.90
2023-01-19T10:13:31.821Z,7.10
2023-01-19T10:16:09.684Z,8.13
2023-01-19T10:18:47.038Z,12.07
2023-01-19T10:21:21.641Z,11.93
2023-01-19T10:23:52.209Z,14.27
2023-01-19T10:26:23.445Z,2.97
2023-01-19T10:28:57.707Z,8.95
2023-01-19T10:31:28.093Z,7.80
2023-01-19T10:33:55.256Z,4.43
2023-01-19T10:36:29.304Z,7.03
2023-01-19T10:38:56.353Z,5.63
2023-01-19T10:41:28.393Z,4.30
2023-01-19T10:44:02.942Z,9.05
2023-01-19T10:46:39.497Z,6.82
2023-01-19T10:49:07.150Z,5.97
2023-01-19T10:51:44.890Z,3.67
2023-01-19T10:54:13.438Z,3.13
2023-01-19T10:56:53.185Z,4.95
2023-01-19T10:59:36.620Z,1.85
2023-01-19T11:02:17.680Z,2.97
2023-01-19T11:04:48.961Z,2.95
2023-01-19T11:07:20.670Z,6.88
2023-01-19T11:09:48.596Z,3.95
2023-01-19T11:12:18.711Z,2.78
2023-01-19T11:14:48.981Z,5.45
2023-01-19T11:17:22.588Z,3.10
2023-01-19T11:19:59.070Z,5.72
2023-01-19T11:22:30.095Z,3.17
2023-01-19T11:25:02.123Z,2.17
2023-01-19T11:27:31.270Z,2.60
2023-01-19T11:30:09.789Z,3.92
2023-01-19T11:35:31.560Z,5.28
2023-01-19T11:38:07.413Z,1.80
2023-01-19T11:40:35.761Z,3.10
2023-01-19T11:43:03.480Z,4.05
2023-01-19T11:45:34.734Z,4.03
2023-01-19T11:48:04.761Z,4.30
2023-01-19T11:50:35.187Z,3.75
2023-01-19T11:53:07.363Z,2.13
2023-01-19T11:55:40.821Z,2.60
2023-01-19T11:58:14.503Z,3.75
2023-01-19T12:00:46.401Z,5.43
2023-01-19T12:03:20.779Z,5.68
2023-01-19T12:05:52.174Z,2.60
2023-01-19T12:08:24.517Z,6.03
2023-01-19T12:10:55.926Z,5.18
2023-01-19T12:13:25.192Z,5.38
2023-01-19T12:15:57.923Z,3.80
2023-01-19T12:18:33.392Z,2.03
2023-01-19T12:21:02.817Z,4.72
2023-01-19T12:23:51.093Z,2.30
2023-01-19T12:26:37.381Z,2.03
2023-01-19T12:29:11.271Z,1.98
2023-01-19T12:31:40.728Z,4.93
2023-01-19T12:34:31.224Z,6.68
2023-01-19T12:37:02.713Z,2.53
2023-01-19T12:39:30.113Z,3.10
2023-01-19T12:42:14.767Z,3.20
2023-01-19T12:44:43.616Z,4.82
2023-01-19T12:47:24.106Z,2.08
2023-01-19T12:49:55.335Z,2.30
2023-01-19T12:52:27.175Z,4.55
2023-01-19T12:55:01.682Z,2.65
2023-01-19T12:57:35.812Z,4.30
2023-01-19T13:00:06.989Z,4.85
2023-01-19T13:02:54.045Z,4.05
2023-01-19T13:05:45.820Z,4.90
2023-01-19T13:08:21.517Z,3.50
2023-01-19T13:11:19.858Z,4.45
2023-01-19T13:14:25.340Z,4.00
2023-01-19T13:17:05.750Z,6.20
2023-01-19T13:19:44.947Z,2.75
2023-01-19T13:22:49.630Z,4.68
2023-01-19T13:25:27.875Z,8.80
2023-01-19T13:27:57.763Z,2.45
2023-01-19T13:30:27.596Z,7.82
2023-01-19T13:33:00.512Z,8.02
2023-01-19T13:35:29.321Z,12.13
2023-01-19T13:37:58.416Z,7.95
2023-01-19T13:40:32.745Z,6.35
2023-01-19T13:43:01.402Z,5.50
2023-01-19T13:45:33.320Z,6.32
2023-01-19T13:48:04.455Z,3.70
2023-01-19T13:50:35.627Z,5.00
2023-01-19T13:53:04.732Z,11.98
2023-01-19T13:55:31.941Z,9.68
2023-01-19T13:57:59.355Z,9.55
2023-01-19T14:00:29.074Z,8.77
2023-01-19T14:03:00.826Z,11.00
2023-01-19T14:05:30.177Z,9.05
2023-01-19T14:08:13.623Z,9.88
2023-01-19T14:10:42.814Z,7.18
2023-01-19T14:13:16.306Z,7.80
2023-01-19T14:15:44.684Z,8.48
2023-01-19T14:18:24.735Z,8.18
2023-01-19T14:20:54.220Z,8.02
2023-01-19T14:23:45.292Z,7.82
2023-01-19T14:26:42.456Z,8.57
2023-01-19T14:29:22.336Z,7.28
2023-01-19T14:31:53.870Z,12.77
2023-01-19T14:34:36.157Z,8.43
2023-01-19T14:37:05.362Z,8.02
2023-01-19T14:40:15.400Z,9.52
2023-01-19T14:42:47.719Z,7.43
2023-01-19T14:45:18.303Z,9.32
2023-01-19T14:47:52.607Z,7.35
2023-01-19T14:50:24.163Z,10.70
2023-01-19T14:52:56.386Z,9.15
2023-01-19T14:55:31.530Z,7.60
2023-01-19T14:57:58.448Z,5.60
2023-01-19T15:00:27.148Z,8.05
2023-01-19T15:02:54.122Z,6.43
2023-01-19T15:05:21.465Z,9.95
2023-01-19T15:07:48.584Z,6.88
2023-01-19T15:10:20.938Z,8.90
2023-01-19T15:12:50.924Z,7.47
2023-01-19T15:15:22.701Z,6.35
2023-01-19T15:17:50.359Z,9.23
2023-01-19T15:20:19.597Z,3.55
2023-01-19T15:22:47.251Z,5.00
2023-01-19T15:25:15.951Z,4.47
2023-01-19T15:27:43.974Z,5.38
2023-01-19T15:30:19.818Z,4.97
2023-01-19T15:32:47.186Z,5.82
2023-01-19T15:35:16.688Z,4.75
2023-01-19T15:37:43.899Z,3.40
2023-01-19T15:40:11.934Z,3.47
2023-01-19T15:42:39.103Z,5.57
2023-01-19T15:45:30.794Z,3.72
2023-01-19T15:47:57.951Z,3.92
2023-01-19T15:50:26.213Z,3.45
2023-01-19T15:52:53.450Z,2.90
2023-01-19T15:55:21.391Z,5.82
2023-01-19T15:57:48.870Z,2.22
2023-01-19T16:00:17.021Z,2.08
2023-01-19T16:02:45.823Z,2.65
2023-01-19T16:07:40.400Z,6.10
2023-01-19T16:10:09.565Z,2.85
2023-01-19T16:15:05.011Z,3.95
2023-01-19T16:17:32.124Z,3.20
2023-01-19T16:20:00.700Z,3.25
2023-01-19T16:22:27.578Z,3.25
2023-01-19T16:24:56.420Z,2.85
2023-01-19T16:27:23.450Z,2.33
2023-01-19T16:29:50.979Z,3.63
2023-01-19T16:32:18.251Z,2.42
2023-01-19T16:34:46.539Z,5.03
2023-01-19T16:37:15.012Z,4.43
2023-01-19T16:39:46.077Z,4.40
2023-01-19T16:42:13.106Z,4.05
2023-01-19T16:44:42.344Z,4.88
2023-01-19T16:47:12.087Z,4.82
2023-01-19T16:49:39.439Z,5.00
2023-01-19T16:52:09.363Z,5.32
2023-01-19T16:54:41.464Z,3.70
2023-01-19T16:57:11.670Z,4.18
2023-01-19T16:59:39.804Z,3.20
2023-01-19T17:02:11.406Z,3.72
2023-01-19T17:04:40.329Z,6.47
2023-01-19T17:07:07.248Z,7.35
2023-01-19T17:09:34.474Z,7.80
2023-01-19T17:12:04.365Z,4.43
2023-01-19T17:14:31.598Z,4.65
2023-01-19T17:16:59.704Z,7.55
2023-01-19T17:19:29.970Z,3.83
2023-01-19T17:21:56.838Z,6.63
2023-01-19T17:24:25.176Z,7.13
2023-01-19T17:26:52.126Z,6.95
2023-01-19T17:29:24.671Z,5.95
2023-01-19T17:31:58.357Z,6.85
2023-01-19T17:34:28.670Z,8.05
2023-01-19T17:37:02.668Z,7.18
2023-01-19T17:39:30.012Z,7.65
2023-01-19T17:41:57.122Z,9.75
2023-01-19T17:44:25.828Z,7.53
2023-01-19T17:46:52.735Z,6.20
2023-01-19T17:49:19.936Z,8.02
2023-01-19T17:51:51.851Z,11.73
2023-01-19T17:54:19.478Z,8.43
2023-01-19T17:56:46.380Z,11.48
2023-01-19T17:59:17.117Z,9.90
2023-01-19T18:01:46.506Z,11.18
2023-01-19T18:04:19.050Z,9.48
2023-01-19T18:06:50.111Z,10.07
2023-01-19T18:09:20.149Z,14.02
2023-01-19T18:11:47.120Z,9.68
2023-01-19T18:14:17.018Z,9.10
2023-01-19T18:16:45.542Z,8.10
2023-01-19T18:19:12.911Z,10.20
2023-01-19T18:21:42.203Z,12.57
2023-01-19T18:24:09.611Z,11.80
2023-01-19T18:26:42.549Z,12.23
2023-01-19T18:29:09.830Z,9.27
2023-01-19T18:31:36.914Z,9.10
2023-01-19T18:34:05.489Z,10.95
2023-01-19T18:36:34.146Z,13.68
2023-01-19T18:41:29.916Z,11.82
2023-01-19T18:43:58.259Z,11.32
2023-01-19T18:46:25.723Z,10.20
2023-01-19T18:48:53.026Z,10.93
2023-01-19T18:51:21.308Z,14.38
2023-01-19T18:53:48.649Z,8.85
2023-01-19T18:56:16.507Z,12.50
2023-01-19T18:58:44.465Z,11.63
2023-01-19T19:01:20.597Z,12.82
2023-01-19T19:03:48.626Z,11.70
2023-01-19T19:06:16.965Z,11.18
2023-01-19T19:08:45.493Z,8.80
2023-01-19T19:11:14.186Z,10.38
2023-01-19T19:13:42.215Z,12.55
2023-01-19T19:16:11.430Z,9.05
2023-01-19T19:18:39.991Z,13.07
2023-01-19T19:21:09.535Z,11.60
2023-01-19T19:23:37.068Z,8.13
2023-01-19T19:26:07.239Z,9.25
2023-01-19T19:28:36.113Z,10.18
2023-01-19T19:31:05.439Z,13.00
2023-01-19T19:33:33.031Z,10.30
2023-01-19T19:36:00.759Z,9.90
2023-01-19T19:38:28.697Z,12.43
2023-01-19T19:40:59.261Z,14.13
2023-01-19T19:43:27.781Z,10.60
2023-01-19T19:45:59.473Z,10.23
2023-01-19T19:48:27.323Z,9.20
2023-01-19T19:51:00.246Z,13.85
2023-01-19T19:53:29.127Z,9.10
2023-01-19T19:55:58.633Z,12.55
2023-01-19T19:58:30.707Z,10.60
2023-01-19T20:00:58.095Z,9.90
2023-01-19T20:03:26.174Z,12.70
2023-01-19T20:05:53.320Z,10.35
2023-01-19T20:08:20.630Z,11.32
2023-01-19T20:10:47.542Z,10.25
2023-01-19T20:13:17.783Z,13.32
2023-01-19T20:15:46.238Z,11.63
2023-01-19T20:18:13.602Z,15.98
2023-01-19T20:20:40.609Z,11.70
2023-01-19T20:23:09.522Z,11.30
2023-01-19T20:25:39.734Z,9.15
2023-01-19T20:28:09.186Z,16.73
2023-01-19T20:30:36.135Z,11.57
2023-01-19T20:33:04.863Z,10.27
2023-01-19T20:35:34.985Z,8.73
2023-01-19T20:38:02.213Z,9.32
2023-01-19T20:40:29.233Z,8.88
2023-01-19T20:42:56.464Z,10.43
2023-01-19T20:45:23.479Z,8.25
2023-01-19T20:47:51.261Z,11.30
2023-01-19T20:50:19.771Z,8.75
2023-01-19T20:52:47.069Z,8.50
2023-01-19T20:55:14.825Z,9.68
2023-01-19T20:57:42.153Z,9.27
2023-01-19T21:00:10.728Z,8.88
2023-01-19T21:02:38.081Z,10.00
2023-01-19T21:05:06.041Z,9.55
2023-01-19T21:07:36.185Z,10.30
2023-01-19T21:10:03.925Z,12.32
2023-01-19T21:12:31.206Z,11.20
2023-01-19T21:14:59.996Z,10.50
2023-01-19T21:19:54.054Z,10.95
2023-01-19T21:22:21.438Z,14.05
2023-01-19T21:24:49.674Z,11.15
2023-01-19T21:27:18.599Z,9.98
2023-01-19T21:29:47.401Z,11.70
2023-01-19T21:34:42.827Z,12.00
2023-01-19T21:37:11.596Z,13.52
2023-01-19T21:39:38.562Z,12.82
2023-01-19T21:42:08.671Z,12.60
2023-01-19T21:44:35.981Z,14.63
2023-01-19T21:47:11.837Z,11.18
2023-01-19T21:49:41.298Z,11.30
2023-01-19T21:52:08.854Z,10.13
2023-01-19T21:54:35.796Z,10.55
2023-01-19T21:57:03.064Z,12.30
2023-01-19T21:59:31.338Z,13.75
2023-01-19T22:01:58.774Z,13.25
2023-01-19T22:04:25.944Z,11.65
2023-01-19T22:06:53.091Z,14.10
2023-01-19T22:09:19.924Z,11.35
2023-01-19T22:11:47.175Z,10.20
2023-01-19T22:14:14.081Z,9.35
2023-01-19T22:16:42.713Z,11.45
2023-01-19T22:19:12.930Z,10.90
2023-01-19T22:21:40.182Z,9.30
2023-01-19T22:24:08.081Z,9.98
2023-01-19T22:26:36.903Z,11.07
2023-01-19T22:29:06.088Z,13.00
2023-01-19T22:31:33.564Z,9.88
2023-01-19T22:34:01.985Z,12.68
2023-01-19T22:36:30.876Z,9.20
2023-01-19T22:38:59.397Z,11.13
2023-01-19T22:41:28.465Z,11.05
2023-01-19T22:43:57.346Z,9.25
2023-01-19T22:46:26.857Z,11.70
2023-01-19T22:48:54.484Z,10.60
2023-01-19T22:51:24.642Z,10.07
2023-01-19T22:53:54.203Z,10.88
2023-01-19T22:56:28.648Z,10.73
2023-01-19T22:58:59.437Z,9.82
2023-01-19T23:01:28.596Z,11.68
2023-01-19T23:03:56.094Z,11.50
2023-01-19T23:06:27.072Z,11.05
2023-01-19T23:08:55.358Z,9.52
2023-01-19T23:11:26.369Z,11.48
2023-01-19T23:13:53.659Z,10.43
2023-01-19T23:16:21.118Z,10.60
2023-01-19T23:18:48.092Z,12.38
2023-01-19T23:21:18.667Z,11.80
2023-01-19T23:23:47.195Z,11.77
2023-01-19T23:26:16.494Z,10.65
2023-01-19T23:28:44.269Z,12.60
2023-01-19T23:31:16.399Z,11.68
2023-01-19T23:33:44.455Z,11.40
2023-01-19T23:36:12.022Z,10.77
2023-01-19T23:38:39.019Z,11.63
2023-01-19T23:41:08.545Z,11.52
2023-01-19T23:43:35.579Z,11.57
2023-01-19T23:46:03.951Z,12.45
2023-01-19T23:48:30.914Z,16.48
2023-01-19T23:50:57.998Z,11.13
2023-01-19T23:53:24.898Z,11.32
2023-01-19T23:55:52.096Z,11.48
2023-01-19T23:58:20.490Z,11.75
